Decoded Metar for CWEU (EUREKA in NU, CANADA) (IATA:WEU) | Meteo·Mobile Aviation Weather
aviador You're here:

CWEU Decoded Metar

EUREKA in NU, CANADA
Report Time2018-11-18 17:00:00
UTC Time2018-11-18 18:11:49
Flight Rules Old
Wind140° at 10 kt
W.Rank140° ranks 1
Current wind is above 140° avg. (8.6)
Visibility9999 m
Phenomena:Light Snow
Clouds:Scattered 035 Hf
Broken 040 Hf
Expected CloudBase > 1,600 ft AGL from Temp-Dew spread
Ceiling4,000 ft
Temp-33°C (ISA -48)
Dew Point-37°C (67% RH)
AAT-40.5°C
QNH1008 hPa
Density Alt-6,129 ft
Elevation33 ft
Report Wrong Elevation
Raw Report
CWEU 181700Z 14010KT 8SM -SN SCT035 BKN040 M33/M37 A2976 RMK
SC4SC3 SLP082=

Extra information for CWEU:More info

Metar Taf Metar & Taf Last 4 Metars F.Rules Stats Wind Profile Meteogram Temp Stats Airport Information Weather charts Add Link Nearby VenuesMetar ALERT Operation Metar Decoded Social comments